Time;durP1;ratioP1;P1;durP2;ratioP2;P2;SDS_P1;SDS_P2;PMS_P1;PMS_P2;Temp;Humidity;BMP_temperature;BMP_pressure;BME280_temperature;BME280_humidity;BME280_pressure;Samples;Min_cycle;Max_cycle;Signal;HPM_P1;HPM_P2
2021/09/16 00:00:59;;;;;;;;;;;16.40;67.10;;;;;;5022611;27;95871;-77
2021/09/16 00:03:31;;;;;;;2.40;2.20;;;16.40;67.00;;;;;;5012920;28;95853;-77
2021/09/16 00:06:02;;;;;;;4.47;2.20;;;16.50;66.90;;;;;;4988665;28;95435;-74
2021/09/16 00:08:34;;;;;;;3.70;2.45;;;16.50;67.10;;;;;;4995831;28;95860;-80
2021/09/16 00:11:05;;;;;;;3.72;2.33;;;16.60;67.20;;;;;;4986022;28;95798;-76
2021/09/16 00:13:39;;;;;;;2.33;1.80;;;16.60;67.00;;;;;;4981284;28;96142;-76
2021/09/16 00:16:10;;;;;;;4.45;2.33;;;16.70;66.90;;;;;;5002053;28;96352;-77
2021/09/16 00:18:41;;;;;;;5.10;2.03;;;16.70;66.90;;;;;;5005154;28;95615;-74
2021/09/16 00:21:11;;;;;;;3.83;2.10;;;16.80;67.00;;;;;;4996888;28;96045;-75
2021/09/16 00:23:41;;;;;;;6.07;2.20;;;16.80;66.70;;;;;;4988865;28;96533;-74
2021/09/16 00:26:12;;;;;;;6.07;1.83;;;16.80;66.50;;;;;;5008729;28;95713;-76
2021/09/16 00:28:43;;;;;;;6.72;2.25;;;16.90;66.70;;;;;;5011010;28;96257;-76
2021/09/16 00:31:14;;;;;;;3.30;1.95;;;16.90;66.60;;;;;;4995800;28;98390;-77
2021/09/16 00:33:45;;;;;;;4.38;1.95;;;16.90;66.70;;;;;;4994146;28;98509;-76
2021/09/16 00:36:16;;;;;;;6.38;2.05;;;16.90;66.50;;;;;;5030661;28;95916;-78
2021/09/16 00:38:47;;;;;;;4.78;1.95;;;16.90;66.10;;;;;;4996572;28;95942;-74
2021/09/16 00:41:18;;;;;;;5.95;1.88;;;17.00;66.40;;;;;;5030062;28;95261;-77
2021/09/16 00:43:50;;;;;;;2.58;1.48;;;17.00;66.30;;;;;;5007656;28;95913;-77
2021/09/16 00:46:20;;;;;;;9.98;1.90;;;17.10;66.10;;;;;;5016593;27;98516;-74
2021/09/16 00:48:51;;;;;;;3.85;2.00;;;17.10;65.80;;;;;;5011372;28;95525;-75
2021/09/16 00:51:22;;;;;;;3.33;1.83;;;17.10;66.00;;;;;;5002447;28;95233;-76
2021/09/16 00:53:56;;;;;;;6.22;1.75;;;17.20;65.80;;;;;;5005205;28;96646;-77
2021/09/16 00:56:27;;;;;;;9.25;1.73;;;17.20;65.70;;;;;;4991307;28;95419;-78
2021/09/16 00:59:00;;;;;;;5.75;1.88;;;17.30;65.60;;;;;;5006409;28;95941;-77
2021/09/16 01:01:31;;;;;;;5.05;1.63;;;17.40;65.40;;;;;;5007994;28;95437;-76
2021/09/16 01:04:03;;;;;;;6.18;1.92;;;17.40;65.90;;;;;;5008677;28;95708;-77
2021/09/16 01:06:34;;;;;;;8.70;3.08;;;17.40;65.40;;;;;;5006655;28;95992;-77
2021/09/16 01:09:05;;;;;;;2.80;1.80;;;17.40;65.40;;;;;;5010253;28;96154;-79
2021/09/16 01:11:36;;;;;;;5.40;1.67;;;17.50;65.30;;;;;;5008621;28;95387;-78
2021/09/16 01:14:10;;;;;;;5.05;1.77;;;17.50;65.40;;;;;;5008233;28;95871;-70
2021/09/16 01:16:40;;;;;;;2.20;1.40;;;17.50;65.00;;;;;;5010427;28;95895;-79
2021/09/16 01:19:13;;;;;;;2.55;1.90;;;17.60;64.90;;;;;;5021139;28;95610;-79
2021/09/16 01:21:42;;;;;;;3.53;1.77;;;17.60;64.90;;;;;;5012449;27;95612;-70
2021/09/16 01:24:13;;;;;;;4.45;2.22;;;17.60;64.80;;;;;;4997933;28;97131;-70
2021/09/16 01:26:46;;;;;;;3.45;1.63;;;17.70;64.60;;;;;;5015206;28;95794;-79
2021/09/16 01:29:19;;;;;;;3.25;1.85;;;17.80;64.70;;;;;;5020694;28;96080;-78
2021/09/16 01:31:52;;;;;;;1.77;1.35;;;17.80;64.40;;;;;;4982143;28;95921;-78
2021/09/16 01:34:23;;;;;;;1.50;1.40;;;17.80;64.10;;;;;;4997040;28;95923;-75
2021/09/16 01:36:55;;;;;;;2.67;2.47;;;17.90;64.20;;;;;;5003342;28;95934;-76
2021/09/16 01:39:27;;;;;;;2.72;1.30;;;18.00;64.50;;;;;;4984234;28;95715;-77
2021/09/16 01:41:59;;;;;;;;;;;18.20;64.70;;;;;;4990780;28;95927;-75
2021/09/16 01:44:28;;;;;;;1.20;1.10;;;18.30;64.80;;;;;;4997596;28;95870;-76
2021/09/16 01:46:59;;;;;;;1.58;1.30;;;18.40;64.90;;;;;;5011132;28;95866;-76
2021/09/16 01:49:33;;;;;;;2.42;1.40;;;18.50;65.00;;;;;;5026571;27;95856;-78
2021/09/16 01:52:06;;;;;;;1.58;1.17;;;18.60;65.20;;;;;;4994494;28;95814;-76
2021/09/16 01:54:37;;;;;;;1.75;1.00;;;18.70;65.00;;;;;;5031024;28;95746;-78
2021/09/16 01:57:08;;;;;;;1.42;1.33;;;18.80;65.00;;;;;;5014886;28;95335;-76
2021/09/16 01:59:39;;;;;;;2.20;1.35;;;18.90;65.00;;;;;;5014644;28;95664;-76
2021/09/16 02:02:10;;;;;;;3.07;1.73;;;19.00;65.00;;;;;;5011514;27;95991;-77
2021/09/16 02:04:41;;;;;;;1.10;0.90;;;19.10;64.90;;;;;;5009445;28;96391;-76
2021/09/16 02:07:13;;;;;;;2.92;1.67;;;19.30;56.90;;;;;;5001876;28;95959;-76
2021/09/16 02:09:47;;;;;;;1.80;1.00;;;19.30;64.80;;;;;;5008103;28;95236;-77
2021/09/16 02:12:19;;;;;;;1.35;0.90;;;19.40;64.60;;;;;;5008902;28;96001;-77
2021/09/16 02:14:49;;;;;;;4.45;0.70;;;19.50;64.60;;;;;;5010069;28;96413;-76
2021/09/16 02:17:19;;;;;;;1.40;0.90;;;19.70;64.50;;;;;;4993866;27;96310;-77
2021/09/16 02:19:51;;;;;;;2.83;1.48;;;19.70;64.40;;;;;;5031099;28;95502;-77
2021/09/16 02:22:22;;;;;;;2.45;1.52;;;19.60;61.00;;;;;;5033347;28;95686;-78
2021/09/16 02:24:52;;;;;;;;;;;19.50;60.80;;;;;;5008311;28;96602;-77
2021/09/16 02:27:25;;;;;;;2.88;1.30;;;19.40;61.50;;;;;;5027957;28;95790;-76
2021/09/16 02:29:55;;;;;;;1.67;1.40;;;19.20;61.70;;;;;;5030746;28;96072;-73
2021/09/16 02:32:27;;;;;;;;;;;19.20;61.90;;;;;;5006160;27;95938;-78
2021/09/16 02:34:58;;;;;;;1.48;1.20;;;19.10;62.10;;;;;;5033265;28;95891;-77
2021/09/16 02:37:29;;;;;;;3.05;1.15;;;19.20;62.50;;;;;;4989087;28;95677;-78
2021/09/16 02:40:01;;;;;;;1.73;1.25;;;19.40;62.70;;;;;;5029672;28;95863;-79
2021/09/16 02:42:31;;;;;;;;;;;19.50;62.30;;;;;;5016607;28;95924;-76
2021/09/16 02:45:02;;;;;;;1.38;1.27;;;19.40;62.00;;;;;;5030888;28;95822;-75
2021/09/16 02:47:34;;;;;;;1.50;1.17;;;19.50;62.40;;;;;;5005215;28;96109;-76
2021/09/16 02:50:06;;;;;;;1.30;1.20;;;19.70;62.00;;;;;;5029062;28;95904;-78
2021/09/16 02:52:36;;;;;;;;;;;19.80;62.40;;;;;;5009221;28;96740;-76
2021/09/16 02:55:07;;;;;;;0.88;0.88;;;19.90;62.40;;;;;;5026936;28;96540;-76
2021/09/16 02:57:39;;;;;;;2.67;1.20;;;20.00;62.50;;;;;;5030386;27;95882;-77
2021/09/16 03:00:10;;;;;;;;;;;20.10;62.40;;;;;;5014967;28;95619;-77
2021/09/16 03:02:41;;;;;;;1.45;1.25;;;20.10;60.80;;;;;;5031360;28;95741;-80
2021/09/16 03:05:13;;;;;;;0.90;0.90;;;20.00;56.30;;;;;;5017904;28;96791;-78
2021/09/16 03:07:43;;;;;;;;;;;19.80;60.80;;;;;;5006373;28;95777;-79
2021/09/16 03:10:14;;;;;;;1.88;1.35;;;19.70;61.10;;;;;;5031740;28;95688;-80
2021/09/16 03:12:45;;;;;;;1.27;1.10;;;19.60;61.20;;;;;;5015199;28;95661;-77
2021/09/16 03:15:16;;;;;;;1.03;1.00;;;19.60;61.50;;;;;;5026581;28;95862;-78
2021/09/16 03:17:47;;;;;;;1.30;1.13;;;19.50;61.60;;;;;;5015139;28;95362;-78
2021/09/16 03:20:19;;;;;;;1.83;1.42;;;19.50;61.80;;;;;;5030308;27;97029;-77
2021/09/16 03:22:51;;;;;;;1.33;1.08;;;19.50;61.80;;;;;;5029922;27;95374;-75
2021/09/16 03:25:22;;;;;;;1.35;1.20;;;19.60;62.10;;;;;;5025664;27;97318;-74
2021/09/16 03:27:52;;;;;;;1.90;1.17;;;19.80;62.00;;;;;;5011251;28;95620;-74
2021/09/16 03:30:23;;;;;;;1.35;1.15;;;19.90;61.90;;;;;;5004867;28;96520;-75
2021/09/16 03:32:58;;;;;;;1.63;1.05;;;20.10;61.90;;;;;;5029759;27;96502;-75
2021/09/16 03:35:29;;;;;;;2.15;0.85;;;20.20;53.00;;;;;;5030396;27;95630;-76
2021/09/16 03:38:01;;;;;;;1.85;1.10;;;20.30;62.50;;;;;;5032009;27;95757;-77
2021/09/16 03:40:32;;;;;;;1.95;1.60;;;20.40;61.90;;;;;;5007161;28;95295;-77
2021/09/16 03:43:02;;;;;;;;;;;20.40;61.30;;;;;;5012435;28;96203;-75
2021/09/16 03:45:32;;;;;;;1.65;1.20;;;20.20;60.20;;;;;;5026447;28;96177;-74
2021/09/16 03:48:02;;;;;;;1.40;1.20;;;20.00;61.00;;;;;;5010981;28;97534;-79
2021/09/16 03:50:37;;;;;;;1.15;1.05;;;20.10;61.30;;;;;;5016849;28;95423;-77
2021/09/16 03:53:08;;;;;;;1.15;1.00;;;20.30;61.40;;;;;;5017481;28;96258;-77
2021/09/16 03:55:38;;;;;;;1.20;0.98;;;20.40;61.40;;;;;;5039324;28;95577;-77
2021/09/16 03:58:10;;;;;;;1.25;0.85;;;20.50;61.60;;;;;;5037133;28;95640;-76
2021/09/16 04:00:40;;;;;;;;;;;20.60;61.60;;;;;;5034731;27;95397;-75
2021/09/16 04:03:12;;;;;;;1.70;1.20;;;20.70;61.60;;;;;;5040454;28;95652;-75
2021/09/16 04:05:44;;;;;;;4.60;0.80;;;20.70;61.70;;;;;;5029526;28;95912;-77
2021/09/16 04:08:16;;;;;;;0.90;0.90;;;20.80;61.70;;;;;;5037040;28;95250;-76
2021/09/16 04:10:48;;;;;;;1.02;0.90;;;20.80;61.70;;;;;;5020851;28;95370;-77
2021/09/16 04:13:19;;;;;;;1.92;0.90;;;20.90;61.80;;;;;;5012527;28;95812;-76
2021/09/16 04:15:50;;;;;;;;;;;21.00;61.80;;;;;;5009951;28;95953;-75
2021/09/16 04:18:22;;;;;;;1.55;1.10;;;21.10;61.80;;;;;;5013265;28;97036;-76
2021/09/16 04:20:56;;;;;;;0.90;0.90;;;21.10;61.80;;;;;;5012831;28;95331;-75
2021/09/16 04:23:28;;;;;;;2.25;1.15;;;21.20;61.80;;;;;;5009677;28;95950;-77
2021/09/16 04:26:00;;;;;;;1.10;1.00;;;21.20;61.80;;;;;;5032410;27;95961;-79
2021/09/16 04:28:30;;;;;;;1.53;1.43;;;21.30;61.80;;;;;;5032458;28;96425;-76
2021/09/16 04:31:03;;;;;;;1.30;1.20;;;21.30;61.90;;;;;;5001721;28;97637;-74
2021/09/16 04:33:35;;;;;;;1.00;0.90;;;21.40;61.80;;;;;;5013425;28;95900;-75
2021/09/16 04:36:06;;;;;;;1.45;1.17;;;21.40;61.90;;;;;;5011730;28;96210;-76
2021/09/16 04:38:37;;;;;;;2.42;1.13;;;21.50;61.90;;;;;;4994942;28;97158;-76
2021/09/16 04:41:07;;;;;;;1.17;1.08;;;21.50;61.80;;;;;;5013495;28;95742;-76
2021/09/16 04:43:39;;;;;;;0.85;0.85;;;21.60;61.90;;;;;;5011119;28;96526;-75
2021/09/16 04:46:09;;;;;;;1.25;1.08;;;21.60;61.90;;;;;;5014109;28;95934;-76
2021/09/16 04:48:40;;;;;;;1.10;0.90;;;21.60;61.80;;;;;;5030890;27;95818;-76
2021/09/16 04:51:12;;;;;;;3.55;3.40;;;21.70;61.90;;;;;;5032425;27;95937;-77
2021/09/16 04:53:44;;;;;;;1.17;1.13;;;21.80;61.90;;;;;;5014026;28;95794;-77
2021/09/16 04:56:14;;;;;;;2.75;1.00;;;21.80;61.90;;;;;;5033179;27;95427;-77
2021/09/16 04:58:48;;;;;;;1.20;1.10;;;21.90;61.90;;;;;;5032973;27;96417;-76
2021/09/16 05:01:19;;;;;;;1.15;1.05;;;21.90;62.00;;;;;;5031027;27;96275;-76
2021/09/16 05:03:51;;;;;;;1.00;0.90;;;22.00;62.00;;;;;;5034355;27;95961;-77
2021/09/16 05:06:22;;;;;;;1.65;1.30;;;22.00;61.90;;;;;;5032624;27;95610;-76
2021/09/16 05:08:53;;;;;;;2.53;1.20;;;21.70;58.50;;;;;;5035076;27;95349;-76
2021/09/16 05:11:24;;;;;;;;;;;21.60;59.20;;;;;;5032687;27;96572;-77
2021/09/16 05:13:54;;;;;;;1.70;1.60;;;21.40;59.40;;;;;;5035181;27;95810;-77
2021/09/16 05:16:24;;;;;;;2.60;1.30;;;21.20;59.80;;;;;;5029159;27;96111;-75
2021/09/16 05:18:54;;;;;;;1.33;1.23;;;21.20;60.20;;;;;;5010764;28;95414;-75
2021/09/16 05:21:23;;;;;;;1.50;1.23;;;21.10;60.40;;;;;;5006605;28;95364;-78
2021/09/16 05:23:54;;;;;;;1.27;1.15;;;21.10;60.50;;;;;;5034678;27;95849;-81
2021/09/16 05:26:24;;;;;;;;;;;21.00;60.60;;;;;;5036086;27;95688;-78
2021/09/16 05:28:55;;;;;;;;;;;20.90;60.90;;;;;;5014302;28;95502;-78
2021/09/16 05:31:26;;;;;;;;;;;20.90;60.90;;;;;;5029924;27;96029;-77
2021/09/16 05:33:56;;;;;;;;;;;20.90;61.00;;;;;;5037333;28;95937;-78
2021/09/16 05:36:27;;;;;;;;;;;20.80;61.20;;;;;;5034294;27;96458;-80
2021/09/16 05:38:58;;;;;;;;;;;20.80;61.20;;;;;;5033625;28;95285;-78
2021/09/16 05:41:30;;;;;;;;;;;20.80;61.40;;;;;;5034005;27;95178;-75
2021/09/16 05:44:00;;;;;;;;;;;20.70;61.40;;;;;;5012772;28;95821;-77
2021/09/16 05:46:31;;;;;;;;;;;20.70;61.40;;;;;;5007874;27;96220;-75
2021/09/16 05:49:01;;;;;;;;;;;20.70;61.60;;;;;;5034991;27;95149;-78
2021/09/16 05:51:31;;;;;;;;;;;20.70;61.50;;;;;;5033473;27;95577;-76
2021/09/16 05:54:03;;;;;;;;;;;20.70;61.50;;;;;;5034628;27;95211;-78
2021/09/16 05:56:32;;;;;;;;;;;20.70;61.60;;;;;;5034672;28;96614;-78
2021/09/16 05:59:04;;;;;;;;;;;20.70;61.60;;;;;;5016520;28;96657;-76
2021/09/16 06:01:35;;;;;;;;;;;20.70;61.70;;;;;;5032048;27;96004;-78
2021/09/16 06:04:06;;;;;;;;;;;20.70;61.90;;;;;;5037893;28;96274;-79
2021/09/16 06:06:36;;;;;;;;;;;20.70;61.80;;;;;;5036530;27;96219;-78
2021/09/16 06:09:07;;;;;;;;;;;20.70;61.80;;;;;;5041313;27;95589;-77
2021/09/16 06:11:38;;;;;;;;;;;20.70;62.00;;;;;;5038972;27;95987;-78
2021/09/16 06:14:08;;;;;;;;;;;20.70;62.00;;;;;;4999829;27;95806;-78
2021/09/16 06:16:39;;;;;;;;;;;20.70;62.10;;;;;;4998869;28;96353;-77
2021/09/16 06:19:10;;;;;;;;;;;20.70;62.10;;;;;;5020392;27;96733;-76
2021/09/16 06:21:41;;;;;;;;;;;20.70;62.10;;;;;;5035065;27;95672;-76
2021/09/16 06:24:11;;;;;;;;;;;20.70;62.10;;;;;;5018294;27;95760;-75
2021/09/16 06:26:42;;;;;;;;;;;20.70;62.20;;;;;;5037017;28;95648;-75
2021/09/16 06:29:12;;;;;;;;;;;20.70;62.20;;;;;;5015215;27;96055;-77
2021/09/16 06:31:44;;;;;;;;;;;20.70;62.30;;;;;;5015552;28;96307;-78
2021/09/16 06:34:15;;;;;;;;;;;20.70;62.20;;;;;;5040635;27;97009;-78
2021/09/16 06:36:46;;;;;;;;;;;20.80;62.30;;;;;;5038944;28;95720;-78
2021/09/16 06:39:16;;;;;;;;;;;20.80;62.10;;;;;;5015923;28;95653;-79
2021/09/16 06:41:46;;;;;;;;;;;20.70;62.20;;;;;;5020294;28;95539;-78
2021/09/16 06:44:17;;;;;;;;;;;20.70;62.20;;;;;;5038428;28;96035;-78
2021/09/16 06:46:46;;;;;;;;;;;20.70;62.20;;;;;;5033978;27;95988;-78
2021/09/16 06:49:16;;;;;;;;;;;20.60;62.30;;;;;;5010750;27;96125;-79
2021/09/16 06:51:48;;;;;;;;;;;20.60;62.30;;;;;;5032986;27;95923;-78
2021/09/16 06:54:19;;;;;;;;;;;20.60;62.40;;;;;;5039032;27;95980;-78
2021/09/16 06:56:50;;;;;;;;;;;20.60;62.30;;;;;;5041856;27;95889;-79
2021/09/16 06:59:20;;;;;;;;;;;20.60;62.40;;;;;;5039657;27;95238;-78
2021/09/16 07:01:51;;;;;;;;;;;20.70;62.40;;;;;;5035659;27;95296;-77
2021/09/16 07:04:22;;;;;;;;;;;20.80;62.30;;;;;;5040993;27;95972;-77
2021/09/16 07:06:54;;;;;;;;;;;20.80;62.30;;;;;;5040589;27;96423;-79
2021/09/16 07:09:25;;;;;;;;;;;20.80;62.20;;;;;;5040802;28;95710;-76
2021/09/16 07:11:55;;;;;;;;;;;20.80;62.50;;;;;;5036315;28;96288;-80
2021/09/16 07:14:26;;;;;;;;;;;20.70;61.90;;;;;;5040137;27;95313;-78
2021/09/16 07:16:59;;;;;;;;;;;20.70;62.50;;;;;;5034549;27;96034;-78
2021/09/16 07:19:30;;;;;;;;;;;20.70;62.60;;;;;;5039009;27;96106;-77
2021/09/16 07:22:01;;;;;;;;;;;20.60;62.80;;;;;;5039704;27;96304;-77
2021/09/16 07:24:31;;;;;;;;;;;20.60;63.00;;;;;;5039580;27;95241;-76
2021/09/16 07:27:02;;;;;;;;;;;20.60;63.10;;;;;;5040649;27;95818;-75
2021/09/16 07:29:32;;;;;;;;;;;20.60;63.00;;;;;;5013958;27;95939;-78
2021/09/16 07:32:03;;;;;;;;;;;20.60;63.10;;;;;;5036709;27;95668;-78
2021/09/16 07:34:33;;;;;;;;;;;20.60;63.10;;;;;;5037704;27;95686;-78
2021/09/16 07:37:03;;;;;;;;;;;20.60;63.10;;;;;;5039068;28;96714;-77
2021/09/16 07:39:34;;;;;;;;;;;20.50;63.00;;;;;;5037853;27;95882;-76
2021/09/16 07:42:05;;;;;;;;;;;20.60;63.20;;;;;;5036747;28;95896;-77
2021/09/16 07:44:35;;;;;;;;;;;20.60;63.20;;;;;;5034118;27;97549;-79
2021/09/16 07:47:05;;;;;;;;;;;20.60;62.90;;;;;;4988280;28;98224;-81
2021/09/16 07:49:36;;;;;;;;;;;20.60;63.10;;;;;;5030910;28;96448;-79
2021/09/16 07:52:08;;;;;;;;;;;20.60;62.90;;;;;;5030796;28;96256;-80
2021/09/16 07:54:38;;;;;;;;;;;20.60;62.90;;;;;;5010141;28;95930;-80
2021/09/16 07:57:09;;;;;;;;;;;20.60;63.10;;;;;;5031233;27;95868;-79
2021/09/16 07:59:40;;;;;;;;;;;20.60;63.10;;;;;;5033088;28;95976;-79
2021/09/16 08:02:10;;;;;;;;;;;20.50;63.30;;;;;;4994009;28;96236;-80
2021/09/16 08:04:41;;;;;;;;;;;20.50;63.30;;;;;;5009076;28;95789;-80
2021/09/16 08:07:11;;;;;;;;;;;20.50;63.50;;;;;;5007272;28;95597;-78
2021/09/16 08:09:41;;;;;;;;;;;20.40;63.50;;;;;;4990275;28;95859;-79
2021/09/16 08:12:11;;;;;;;;;;;20.40;63.50;;;;;;5010349;28;97960;-80
2021/09/16 08:14:41;;;;;;;;;;;20.30;63.70;;;;;;5011436;28;95482;-80
2021/09/16 08:17:12;;;;;;;;;;;20.30;63.70;;;;;;5025888;28;96022;-79
2021/09/16 08:19:42;;;;;;;;;;;20.30;63.80;;;;;;5037308;28;95731;-77
2021/09/16 08:22:11;;;;;;;;;;;20.20;63.90;;;;;;5038215;28;95356;-79
2021/09/16 08:24:41;;;;;;;;;;;20.20;64.00;;;;;;5036539;27;98495;-78
2021/09/16 08:27:10;;;;;;;;;;;20.20;64.00;;;;;;5035673;28;96463;-77
2021/09/16 08:29:39;;;;;;;;;;;20.20;64.20;;;;;;5035014;28;95848;-79
2021/09/16 08:32:11;;;;;;;;;;;20.10;64.90;;;;;;5031929;27;97359;-75
2021/09/16 08:34:42;;;;;;;;;;;20.10;64.30;;;;;;5032564;27;95861;-75
2021/09/16 08:37:12;;;;;;;;;;;20.10;64.40;;;;;;5008802;28;96505;-72
2021/09/16 08:39:43;;;;;;;;;;;20.00;64.40;;;;;;5032240;28;96040;-75
2021/09/16 08:42:15;;;;;;;;;;;20.00;64.50;;;;;;5031478;28;95650;-75
2021/09/16 08:44:46;;;;;;;;;;;19.90;64.60;;;;;;5030663;27;95889;-75
2021/09/16 08:47:16;;;;;;;;;;;19.90;64.60;;;;;;5029842;27;95850;-74
2021/09/16 08:49:48;;;;;;;;;;;19.90;64.70;;;;;;4996738;28;98533;-75
2021/09/16 08:52:19;;;;;;;;;;;19.80;65.40;;;;;;5031737;28;95302;-75
2021/09/16 08:54:49;;;;;;;;;;;19.80;65.40;;;;;;5034267;27;95300;-77
2021/09/16 08:57:20;;;;;;;;;;;19.80;64.80;;;;;;5032611;28;95831;-77
2021/09/16 08:59:51;;;;;;;;;;;19.80;65.10;;;;;;5032472;28;95957;-77
2021/09/16 09:02:21;;;;;;;;;;;19.70;65.10;;;;;;5027655;27;97613;-76
2021/09/16 09:04:51;;;;;;;;;;;19.70;65.20;;;;;;5034331;28;95901;-77
2021/09/16 09:07:22;;;;;;;;;;;19.70;65.00;;;;;;5011682;28;98466;-76
2021/09/16 09:09:52;;;;;;;;;;;19.70;65.40;;;;;;5011848;28;95236;-77
2021/09/16 09:12:24;;;;;;;;;;;19.60;65.40;;;;;;5031900;28;95355;-76
2021/09/16 09:14:56;;;;;;;;;;;19.60;65.60;;;;;;5010342;28;96859;-77
2021/09/16 09:17:29;;;;;;;;;;;19.60;65.60;;;;;;5026534;27;95832;-76
2021/09/16 09:20:06;;;;;;;;;;;19.50;65.60;;;;;;5009682;28;97294;-76
2021/09/16 09:22:36;;;;;;;;;;;19.40;65.60;;;;;;5032998;28;95984;-76
2021/09/16 09:25:10;;;;;;;;;;;19.40;65.80;;;;;;5033012;28;96496;-77
2021/09/16 09:27:46;;;;;;;;;;;19.40;65.80;;;;;;5010193;28;95443;-75
2021/09/16 09:30:16;;;;;;;;;;;19.40;65.80;;;;;;5029593;27;96263;-75
2021/09/16 09:32:55;;;;;;;;;;;19.30;65.80;;;;;;5005496;28;95549;-74
2021/09/16 09:35:24;;;;;;;;;;;19.30;65.80;;;;;;5009734;27;95378;-76
2021/09/16 09:37:54;;;;;;;;;;;19.30;65.90;;;;;;5033716;28;95842;-75
2021/09/16 09:40:28;;;;;;;;;;;19.20;65.80;;;;;;5032117;28;95799;-75
2021/09/16 09:43:19;;;;;;;;;;;19.20;66.00;;;;;;5012302;28;95834;-75
2021/09/16 09:46:02;;;;;;;;;;;19.20;66.10;;;;;;5029458;27;95660;-76
2021/09/16 09:48:35;;;;;;;;;;;19.20;66.10;;;;;;5009477;28;98510;-75
2021/09/16 09:51:07;;;;;;;;;;;19.10;66.20;;;;;;5030285;28;95360;-75
2021/09/16 09:53:38;;;;;;;;;;;19.10;66.20;;;;;;5031521;28;96478;-75
2021/09/16 09:56:23;;;;;;;;;;;19.10;66.20;;;;;;5040430;27;95785;-76
2021/09/16 09:58:55;;;;;;;;;;;19.00;66.20;;;;;;5034716;28;95960;-75
2021/09/16 10:01:29;;;;;;;;;;;19.00;66.30;;;;;;5029698;27;95853;-76
2021/09/16 10:04:20;;;;;;;;;;;19.00;66.30;;;;;;5010357;28;95803;-76
2021/09/16 10:06:51;;;;;;;;;;;19.00;66.30;;;;;;5032123;27;95761;-75
2021/09/16 10:09:23;;;;;;;;;;;18.90;66.40;;;;;;5007899;28;96079;-75
2021/09/16 10:11:57;;;;;;;;;;;18.90;66.50;;;;;;5031427;27;95874;-76
2021/09/16 10:14:26;;;;;;;;;;;18.80;66.40;;;;;;5031327;27;95888;-75
2021/09/16 10:16:57;;;;;;;;;;;18.80;66.50;;;;;;5006320;28;95453;-69
2021/09/16 10:19:30;;;;;;;;;;;18.80;66.50;;;;;;5010626;28;95875;-75
2021/09/16 10:21:59;;;;;;;;;;;18.70;66.60;;;;;;5005426;28;96030;-76
2021/09/16 10:24:29;;;;;;;;;;;18.70;66.60;;;;;;5005777;28;96419;-75
2021/09/16 10:26:59;;;;;;;;;;;18.70;66.60;;;;;;5032822;28;95242;-75
2021/09/16 10:29:29;;;;;;;;;;;18.60;66.60;;;;;;5030324;28;98070;-76
2021/09/16 10:32:07;;;;;;;;;;;18.60;66.70;;;;;;4997298;28;96094;-75
2021/09/16 10:34:41;;;;;;;;;;;18.50;66.90;;;;;;4997272;28;95759;-75
2021/09/16 10:37:11;;;;;;;;;;;18.40;67.10;;;;;;5035210;27;97904;-74
2021/09/16 10:39:42;;;;;;;;;;;18.30;67.10;;;;;;5029700;28;95783;-75
2021/09/16 10:42:14;;;;;;;;;;;18.30;67.20;;;;;;5037973;28;95321;-75
2021/09/16 10:44:46;;;;;;;;;;;18.20;67.30;;;;;;5029484;28;95540;-75
2021/09/16 10:47:20;;;;;;;;;;;18.20;67.40;;;;;;5011794;28;95484;-75
2021/09/16 10:49:50;;;;;;;;;;;18.20;67.50;;;;;;5015045;28;96054;-76
2021/09/16 10:52:25;;;;;;;;;;;18.10;67.50;;;;;;5030754;28;95308;-69
2021/09/16 10:54:55;;;;;;;;;;;18.10;67.40;;;;;;5012868;28;96111;-77
2021/09/16 10:57:29;;;;;;;;;;;18.10;67.50;;;;;;5030312;28;95866;-76
2021/09/16 10:59:59;;;;;;;;;;;18.00;67.50;;;;;;5031751;28;95829;-77
2021/09/16 11:02:48;;;;;;;;;;;18.00;67.60;;;;;;5023716;27;96111;-76
2021/09/16 11:05:20;;;;;;;;;;;17.90;67.60;;;;;;4984358;28;96819;-76
2021/09/16 11:07:54;;;;;;;;;;;17.90;67.60;;;;;;5006403;27;96543;-77
2021/09/16 11:10:29;;;;;;;;;;;17.80;67.80;;;;;;5022042;28;97222;-76
2021/09/16 11:13:04;;;;;;;;;;;17.80;67.70;;;;;;5009429;28;95757;-76
2021/09/16 11:15:37;;;;;;;;;;;17.80;67.80;;;;;;4994865;27;95843;-77
2021/09/16 11:18:20;;;;;;;;;;;17.70;67.90;;;;;;4989648;28;97326;-77
2021/09/16 11:20:55;;;;;;;;;;;17.70;67.90;;;;;;5029490;28;95865;-76
2021/09/16 11:23:53;;;;;;;;;;;17.70;67.90;;;;;;5014597;28;96157;-76
2021/09/16 11:26:23;;;;;;;;;;;17.60;68.00;;;;;;4992442;28;95545;-77
2021/09/16 11:28:56;;;;;;;;;;;17.60;68.00;;;;;;5014304;28;95911;-77
2021/09/16 11:31:26;;;;;;;;;;;17.60;68.10;;;;;;5027749;27;95749;-77
2021/09/16 11:34:10;;;;;;;;;;;17.50;68.00;;;;;;5034494;28;95921;-76
2021/09/16 11:37:21;;;;;;;;;;;17.50;68.10;;;;;;5009007;27;95207;-76
2021/09/16 11:40:00;;;;;;;;;;;17.50;68.10;;;;;;4905808;28;96177;-76
2021/09/16 11:42:32;;;;;;;;;;;17.40;68.10;;;;;;4930499;28;96846;-76
2021/09/16 11:45:09;;;;;;;;;;;17.30;68.00;;;;;;4930427;28;96759;-76
2021/09/16 11:47:43;;;;;;;;;;;17.30;68.10;;;;;;4929229;28;95869;-77
2021/09/16 11:50:27;;;;;;;;;;;17.30;68.20;;;;;;4928203;28;97610;-76
2021/09/16 11:52:59;;;;;;;;;;;17.20;68.20;;;;;;4950856;28;96390;-69
2021/09/16 11:55:31;;;;;;;;;;;17.20;68.30;;;;;;4942360;28;96439;-76
2021/09/16 11:58:01;;;;;;;;;;;17.20;68.30;;;;;;4913912;28;95636;-77
2021/09/16 12:00:37;;;;;;;;;;;17.10;68.40;;;;;;4951803;28;95527;-73
2021/09/16 12:03:09;;;;;;;;;;;17.10;68.40;;;;;;4934534;28;95941;-76
2021/09/16 12:05:42;;;;;;;;;;;17.10;68.40;;;;;;4917636;28;95884;-77
2021/09/16 12:08:20;;;;;;;;;;;17.00;68.50;;;;;;4907806;28;96303;-77
2021/09/16 12:10:59;;;;;;;;;;;17.00;68.40;;;;;;4916818;28;96167;-70
2021/09/16 12:13:31;;;;;;;;;;;17.00;68.50;;;;;;4941197;28;98204;-77
2021/09/16 12:16:12;;;;;;;;;;;16.90;68.50;;;;;;4989027;28;97486;-77
2021/09/16 12:18:47;;;;;;;;;;;16.90;68.60;;;;;;4984976;28;97181;-76
2021/09/16 12:21:21;;;;;;;;;;;16.90;68.60;;;;;;5013372;28;95640;-76
2021/09/16 12:23:53;;;;;;;;;;;16.80;68.60;;;;;;4997881;28;96375;-77
2021/09/16 12:26:23;;;;;;;;;;;16.80;68.70;;;;;;4996106;28;98289;-76
2021/09/16 12:28:53;;;;;;;;;;;16.80;68.60;;;;;;4977103;28;96423;-77
2021/09/16 12:31:26;;;;;;;;;;;16.70;68.60;;;;;;5001878;28;97210;-76
2021/09/16 12:33:58;;;;;;;;;;;16.70;68.70;;;;;;5035370;28;95340;-76
2021/09/16 12:36:33;;;;;;;;;;;16.70;68.70;;;;;;4995600;28;96222;-76
2021/09/16 12:39:13;;;;;;;;;;;16.70;68.80;;;;;;5009179;28;95908;-77
2021/09/16 12:41:50;;;;;;;;;;;16.60;68.70;;;;;;5025946;28;98105;-77
2021/09/16 12:44:46;;;;;;;;;;;16.60;69.00;;;;;;5034955;28;95868;-76
2021/09/16 12:47:17;;;;;;;;;;;16.60;68.80;;;;;;4986972;28;97743;-75
2021/09/16 12:49:53;;;;;;;;;;;16.50;68.80;;;;;;5021172;28;95910;-75
2021/09/16 12:52:29;;;;;;;;;;;16.50;68.80;;;;;;5035419;28;95849;-76
2021/09/16 12:55:07;;;;;;;;;;;16.50;68.90;;;;;;5024403;27;95824;-76
2021/09/16 12:57:39;;;;;;;;;;;16.50;68.90;;;;;;5010860;27;95980;-77
2021/09/16 13:00:10;;;;;;;;;;;16.40;68.70;;;;;;5010369;28;95568;-76
2021/09/16 13:02:45;;;;;;;;;;;16.40;68.80;;;;;;5031318;28;96019;-76
2021/09/16 13:05:22;;;;;;;;;;;16.30;68.80;;;;;;5031431;28;95825;-77
2021/09/16 13:08:06;;;;;;;;;;;16.30;69.50;;;;;;5012945;28;96006;-77
2021/09/16 13:10:42;;;;;;;;;;;16.30;68.90;;;;;;5034107;28;95769;-76
2021/09/16 13:13:22;;;;;;;;;;;16.30;69.00;;;;;;5031115;28;95602;-76
2021/09/16 13:15:52;;;;;;;;;;;16.20;68.90;;;;;;5026603;28;96164;-76
2021/09/16 13:18:28;;;;;;;;;;;16.20;69.00;;;;;;5034306;27;95688;-76
2021/09/16 13:20:58;;;;;;;;;;;16.20;69.10;;;;;;5037528;27;95685;-76
2021/09/16 13:23:28;;;;;;;;;;;16.10;69.00;;;;;;5017398;28;95453;-76
2021/09/16 13:25:57;;;;;;;;;;;16.10;69.10;;;;;;5037100;27;95758;-77
2021/09/16 13:28:27;;;;;;;;;;;16.10;69.10;;;;;;5034529;28;95232;-76
2021/09/16 13:30:57;;;;;;;;;;;16.10;69.20;;;;;;5013554;27;97817;-76
2021/09/16 13:33:27;;;;;;;;;;;16.00;69.10;;;;;;5017193;28;95619;-70
2021/09/16 13:35:59;;;;;;;;;;;16.00;69.10;;;;;;5033833;27;95616;-78
2021/09/16 13:38:30;;;;;;;;;;;16.00;69.20;;;;;;5037245;28;95545;-76
2021/09/16 13:41:00;;;;;;;;;;;16.00;69.20;;;;;;5004928;28;95619;-78
2021/09/16 13:43:31;;;;;;;;;;;16.00;69.30;;;;;;5040981;27;95199;-78
2021/09/16 13:46:01;;;;;;;;;;;15.90;69.30;;;;;;5032098;27;95815;-78
2021/09/16 13:48:32;;;;;;;;;;;15.90;69.30;;;;;;5017815;28;95527;-79
2021/09/16 13:51:02;;;;;;;;;;;15.90;69.40;;;;;;5035320;27;95915;-77
2021/09/16 13:53:33;;;;;;;;;;;15.90;69.40;;;;;;5019764;28;95397;-77
2021/09/16 13:56:03;;;;;;;;;;;15.80;69.40;;;;;;5038985;27;95826;-77
2021/09/16 13:58:33;;;;;;;;;;;15.80;69.40;;;;;;5039417;28;95749;-77
2021/09/16 14:01:04;;;;;;;;;;;15.80;69.60;;;;;;5029546;27;96051;-77
2021/09/16 14:03:35;;;;;;;;;;;15.80;69.60;;;;;;5041164;27;95255;-76
2021/09/16 14:06:06;;;;;;;;;;;15.80;69.60;;;;;;5040063;27;95876;-77
2021/09/16 14:08:37;;;;;;;;;;;15.70;69.60;;;;;;5039645;27;97198;-77
2021/09/16 14:11:09;;;;;;;;;;;15.70;69.60;;;;;;5036441;27;95829;-77